sensor_id;sensor_type;location;lat;lon;timestamp;pressure;altitude;pressure_sealevel;temperature;humidity
63808;BME280;49961;43.970;22.868;2023-04-21T00:00:28;100963.38;;;13.79;100.00
63808;BME280;49961;43.970;22.868;2023-04-21T00:01:28;100957.50;;;13.77;100.00
63808;BME280;49961;43.970;22.868;2023-04-21T00:02:29;100963.50;;;13.76;100.00
63808;BME280;49961;43.970;22.868;2023-04-21T00:03:29;100895.09;;;13.37;100.00
63808;BME280;49961;43.970;22.868;2023-04-21T00:04:32;100961.06;;;13.78;100.00
63808;BME280;49961;43.970;22.868;2023-04-21T00:05:33;100937.22;;;13.64;100.00
63808;BME280;49961;43.970;22.868;2023-04-21T00:06:33;100955.03;;;13.79;100.00
63808;BME280;49961;43.970;22.868;2023-04-21T00:07:35;100959.28;;;13.71;100.00
63808;BME280;49961;43.970;22.868;2023-04-21T00:08:36;100947.13;;;13.65;100.00
63808;BME280;49961;43.970;22.868;2023-04-21T00:09:39;100939.09;;;13.67;100.00
63808;BME280;49961;43.970;22.868;2023-04-21T00:10:40;100879.38;;;13.31;100.00
63808;BME280;49961;43.970;22.868;2023-04-21T00:11:40;100947.22;;;13.74;100.00
63808;BME280;49961;43.970;22.868;2023-04-21T00:12:41;100944.47;;;13.62;100.00
63808;BME280;49961;43.970;22.868;2023-04-21T00:13:41;100948.44;;;13.61;100.00
63808;BME280;49961;43.970;22.868;2023-04-21T00:14:42;100952.72;;;13.65;100.00
63808;BME280;49961;43.970;22.868;2023-04-21T00:15:42;100927.28;;;13.51;100.00
63808;BME280;49961;43.970;22.868;2023-04-21T00:16:43;100944.00;;;13.63;100.00
63808;BME280;49961;43.970;22.868;2023-04-21T00:17:43;100940.31;;;13.54;100.00
63808;BME280;49961;43.970;22.868;2023-04-21T00:18:43;100944.47;;;13.62;100.00
63808;BME280;49961;43.970;22.868;2023-04-21T00:19:44;100949.13;;;13.65;100.00
63808;BME280;49961;43.970;22.868;2023-04-21T00:20:45;100953.25;;;13.60;100.00
63808;BME280;49961;43.970;22.868;2023-04-21T00:21:45;100948.81;;;13.63;100.00
63808;BME280;49961;43.970;22.868;2023-04-21T00:22:46;100924.06;;;13.40;100.00
63808;BME280;49961;43.970;22.868;2023-04-21T00:23:46;100949.00;;;13.56;100.00
63808;BME280;49961;43.970;22.868;2023-04-21T00:24:49;100950.47;;;13.60;100.00
63808;BME280;49961;43.970;22.868;2023-04-21T00:25:49;100807.16;;;12.61;100.00
63808;BME280;49961;43.970;22.868;2023-04-21T00:26:50;100907.56;;;13.33;100.00
63808;BME280;49961;43.970;22.868;2023-04-21T00:27:50;100940.78;;;13.52;100.00
63808;BME280;49961;43.970;22.868;2023-04-21T00:28:51;100857.22;;;13.02;100.00
63808;BME280;49961;43.970;22.868;2023-04-21T00:29:51;100953.59;;;13.62;100.00
63808;BME280;49961;43.970;22.868;2023-04-21T00:30:51;100957.34;;;13.56;100.00
63808;BME280;49961;43.970;22.868;2023-04-21T00:31:53;100956.72;;;13.52;100.00
63808;BME280;49961;43.970;22.868;2023-04-21T00:32:53;100951.47;;;13.54;100.00
63808;BME280;49961;43.970;22.868;2023-04-21T00:33:55;100958.59;;;13.55;100.00
63808;BME280;49961;43.970;22.868;2023-04-21T00:34:55;100948.56;;;13.57;100.00
63808;BME280;49961;43.970;22.868;2023-04-21T00:35:55;100957.47;;;13.52;100.00
63808;BME280;49961;43.970;22.868;2023-04-21T00:36:58;100961.81;;;13.53;100.00
63808;BME280;49961;43.970;22.868;2023-04-21T00:37:58;100956.25;;;13.53;100.00
63808;BME280;49961;43.970;22.868;2023-04-21T00:38:59;100955.47;;;13.53;100.00
63808;BME280;49961;43.970;22.868;2023-04-21T00:39:59;100949.56;;;13.51;100.00
63808;BME280;49961;43.970;22.868;2023-04-21T00:40:59;100948.00;;;13.50;100.00
63808;BME280;49961;43.970;22.868;2023-04-21T00:42:00;100957.25;;;13.47;100.00
63808;BME280;49961;43.970;22.868;2023-04-21T00:43:05;100951.69;;;13.47;100.00
63808;BME280;49961;43.970;22.868;2023-04-21T00:44:07;100933.19;;;13.28;100.00
63808;BME280;49961;43.970;22.868;2023-04-21T00:45:07;100885.59;;;12.97;100.00
63808;BME280;49961;43.970;22.868;2023-04-21T00:46:08;100957.25;;;13.47;100.00
63808;BME280;49961;43.970;22.868;2023-04-21T00:47:08;100955.09;;;13.38;100.00
63808;BME280;49961;43.970;22.868;2023-04-21T00:48:10;100955.03;;;13.42;100.00
63808;BME280;49961;43.970;22.868;2023-04-21T00:49:11;100939.06;;;13.30;100.00
63808;BME280;49961;43.970;22.868;2023-04-21T00:50:12;100964.81;;;13.34;100.00
63808;BME280;49961;43.970;22.868;2023-04-21T00:51:13;100947.31;;;13.21;100.00
63808;BME280;49961;43.970;22.868;2023-04-21T00:52:16;100955.34;;;13.31;100.00
63808;BME280;49961;43.970;22.868;2023-04-21T00:53:17;100960.03;;;13.34;100.00
63808;BME280;49961;43.970;22.868;2023-04-21T00:54:19;100896.47;;;12.92;100.00
63808;BME280;49961;43.970;22.868;2023-04-21T00:55:23;100941.63;;;13.24;100.00
63808;BME280;49961;43.970;22.868;2023-04-21T00:56:25;100890.53;;;12.90;100.00
63808;BME280;49961;43.970;22.868;2023-04-21T00:57:26;100960.31;;;13.24;100.00
63808;BME280;49961;43.970;22.868;2023-04-21T00:58:27;100951.75;;;13.18;100.00
63808;BME280;49961;43.970;22.868;2023-04-21T00:59:29;100847.63;;;12.50;100.00
63808;BME280;49961;43.970;22.868;2023-04-21T01:00:29;100909.00;;;12.84;100.00
63808;BME280;49961;43.970;22.868;2023-04-21T01:01:31;100959.88;;;13.13;100.00
63808;BME280;49961;43.970;22.868;2023-04-21T01:02:34;100946.63;;;13.17;100.00
63808;BME280;49961;43.970;22.868;2023-04-21T01:03:35;100949.75;;;13.19;100.00
63808;BME280;49961;43.970;22.868;2023-04-21T01:04:35;100953.84;;;13.14;100.00
63808;BME280;49961;43.970;22.868;2023-04-21T01:05:38;100948.28;;;13.14;100.00
63808;BME280;49961;43.970;22.868;2023-04-21T01:06:40;100955.53;;;13.12;100.00
63808;BME280;49961;43.970;22.868;2023-04-21T01:07:41;100857.97;;;12.49;100.00
63808;BME280;49961;43.970;22.868;2023-04-21T01:08:42;100949.97;;;13.12;100.00
63808;BME280;49961;43.970;22.868;2023-04-21T01:09:43;100952.63;;;13.15;100.00
63808;BME280;49961;43.970;22.868;2023-04-21T01:10:43;100923.84;;;12.93;100.00
63808;BME280;49961;43.970;22.868;2023-04-21T01:12:04;100952.50;;;13.06;100.00
63808;BME280;49961;43.970;22.868;2023-04-21T01:13:05;100949.28;;;13.08;100.00
63808;BME280;49961;43.970;22.868;2023-04-21T01:14:05;100947.13;;;12.99;100.00
63808;BME280;49961;43.970;22.868;2023-04-21T01:15:07;100949.22;;;12.95;100.00
63808;BME280;49961;43.970;22.868;2023-04-21T01:16:07;100932.25;;;12.90;100.00
63808;BME280;49961;43.970;22.868;2023-04-21T01:17:08;100948.00;;;12.96;100.00
63808;BME280;49961;43.970;22.868;2023-04-21T01:18:08;100946.63;;;12.88;100.00
63808;BME280;49961;43.970;22.868;2023-04-21T01:19:09;100947.28;;;12.92;100.00
63808;BME280;49961;43.970;22.868;2023-04-21T01:20:13;100937.38;;;12.91;100.00
63808;BME280;49961;43.970;22.868;2023-04-21T01:21:14;100823.50;;;12.18;100.00
63808;BME280;49961;43.970;22.868;2023-04-21T01:22:15;100940.44;;;12.97;100.00
63808;BME280;49961;43.970;22.868;2023-04-21T01:23:15;100947.91;;;13.00;100.00
63808;BME280;49961;43.970;22.868;2023-04-21T01:24:18;100944.00;;;12.97;100.00
63808;BME280;49961;43.970;22.868;2023-04-21T01:25:18;100941.28;;;12.94;100.00
63808;BME280;49961;43.970;22.868;2023-04-21T01:26:22;100941.84;;;12.89;100.00
63808;BME280;49961;43.970;22.868;2023-04-21T01:27:23;100905.06;;;12.69;100.00
63808;BME280;49961;43.970;22.868;2023-04-21T01:28:25;100836.94;;;12.20;100.00
63808;BME280;49961;43.970;22.868;2023-04-21T01:29:25;100942.28;;;12.87;100.00
63808;BME280;49961;43.970;22.868;2023-04-21T01:30:26;100939.59;;;12.84;100.00
63808;BME280;49961;43.970;22.868;2023-04-21T01:31:26;100936.91;;;12.80;100.00
63808;BME280;49961;43.970;22.868;2023-04-21T01:32:28;100935.69;;;12.81;100.00
63808;BME280;49961;43.970;22.868;2023-04-21T01:33:29;100934.13;;;12.80;100.00
63808;BME280;49961;43.970;22.868;2023-04-21T01:34:29;100943.81;;;12.76;100.00
63808;BME280;49961;43.970;22.868;2023-04-21T01:35:30;100945.09;;;12.71;100.00
63808;BME280;49961;43.970;22.868;2023-04-21T01:36:30;100877.72;;;12.23;100.00
63808;BME280;49961;43.970;22.868;2023-04-21T01:37:31;100946.44;;;12.67;100.00
63808;BME280;49961;43.970;22.868;2023-04-21T01:38:32;100944.97;;;12.62;100.00
63808;BME280;49961;43.970;22.868;2023-04-21T01:39:32;100881.13;;;12.14;100.00
63808;BME280;49961;43.970;22.868;2023-04-21T01:40:33;100961.72;;;12.59;100.00
63808;BME280;49961;43.970;22.868;2023-04-21T01:41:33;100948.63;;;12.59;100.00
63808;BME280;49961;43.970;22.868;2023-04-21T01:42:37;100936.13;;;12.51;100.00
63808;BME280;49961;43.970;22.868;2023-04-21T01:43:37;100950.72;;;12.55;100.00
63808;BME280;49961;43.970;22.868;2023-04-21T01:44:38;100951.25;;;12.50;100.00
63808;BME280;49961;43.970;22.868;2023-04-21T01:45:39;100947.34;;;12.48;100.00
63808;BME280;49961;43.970;22.868;2023-04-21T01:46:39;100941.53;;;12.42;100.00
63808;BME280;49961;43.970;22.868;2023-04-21T01:47:40;100954.31;;;12.40;100.00
63808;BME280;49961;43.970;22.868;2023-04-21T01:48:40;100954.47;;;12.33;100.00
63808;BME280;49961;43.970;22.868;2023-04-21T01:49:41;100951.88;;;12.26;100.00
63808;BME280;49961;43.970;22.868;2023-04-21T01:50:42;100958.56;;;12.28;100.00
63808;BME280;49961;43.970;22.868;2023-04-21T01:51:42;100960.22;;;12.26;100.00
63808;BME280;49961;43.970;22.868;2023-04-21T01:52:43;100945.31;;;12.20;100.00
63808;BME280;49961;43.970;22.868;2023-04-21T01:53:43;100820.84;;;11.35;100.00
63808;BME280;49961;43.970;22.868;2023-04-21T01:54:43;100948.19;;;12.16;100.00
63808;BME280;49961;43.970;22.868;2023-04-21T01:55:44;100946.44;;;12.22;100.00
63808;BME280;49961;43.970;22.868;2023-04-21T01:56:44;100934.97;;;12.04;100.00
63808;BME280;49961;43.970;22.868;2023-04-21T01:57:45;100958.06;;;12.17;100.00
63808;BME280;49961;43.970;22.868;2023-04-21T01:58:45;100958.78;;;12.21;100.00
63808;BME280;49961;43.970;22.868;2023-04-21T01:59:45;100957.97;;;12.21;100.00
63808;BME280;49961;43.970;22.868;2023-04-21T02:00:47;100955.91;;;12.25;100.00
63808;BME280;49961;43.970;22.868;2023-04-21T02:01:47;100949.91;;;12.26;100.00
63808;BME280;49961;43.970;22.868;2023-04-21T02:02:48;100957.03;;;12.27;100.00
63808;BME280;49961;43.970;22.868;2023-04-21T02:03:48;100953.44;;;12.27;100.00
63808;BME280;49961;43.970;22.868;2023-04-21T02:04:49;100951.78;;;12.29;100.00
63808;BME280;49961;43.970;22.868;2023-04-21T02:05:50;100970.81;;;12.31;100.00
63808;BME280;49961;43.970;22.868;2023-04-21T02:06:50;100945.91;;;12.27;100.00
63808;BME280;49961;43.970;22.868;2023-04-21T02:07:50;100944.41;;;12.23;100.00
63808;BME280;49961;43.970;22.868;2023-04-21T02:08:51;100945.22;;;12.23;100.00
63808;BME280;49961;43.970;22.868;2023-04-21T02:09:51;100945.09;;;12.27;100.00
63808;BME280;49961;43.970;22.868;2023-04-21T02:10:52;100946.66;;;12.28;100.00
63808;BME280;49961;43.970;22.868;2023-04-21T02:11:54;100937.41;;;12.18;100.00
63808;BME280;49961;43.970;22.868;2023-04-21T02:12:54;100945.63;;;12.22;100.00
63808;BME280;49961;43.970;22.868;2023-04-21T02:13:55;100941.31;;;12.21;100.00
63808;BME280;49961;43.970;22.868;2023-04-21T02:14:55;100948.50;;;12.18;100.00
63808;BME280;49961;43.970;22.868;2023-04-21T02:15:56;100952.75;;;12.23;100.00
63808;BME280;49961;43.970;22.868;2023-04-21T02:16:56;100942.00;;;12.25;100.00
63808;BME280;49961;43.970;22.868;2023-04-21T02:17:57;100938.84;;;12.23;100.00
63808;BME280;49961;43.970;22.868;2023-04-21T02:18:57;100822.16;;;11.46;100.00
63808;BME280;49961;43.970;22.868;2023-04-21T02:19:58;100944.59;;;12.16;100.00
63808;BME280;49961;43.970;22.868;2023-04-21T02:20:59;100940.59;;;12.17;100.00
63808;BME280;49961;43.970;22.868;2023-04-21T02:21:59;100937.41;;;12.18;100.00
63808;BME280;49961;43.970;22.868;2023-04-21T02:23:00;100941.72;;;12.19;100.00
63808;BME280;49961;43.970;22.868;2023-04-21T02:24:00;100936.28;;;12.16;100.00
63808;BME280;49961;43.970;22.868;2023-04-21T02:25:01;100920.13;;;12.11;100.00
63808;BME280;49961;43.970;22.868;2023-04-21T02:26:01;100941.41;;;12.17;100.00
63808;BME280;49961;43.970;22.868;2023-04-21T02:27:01;100939.38;;;12.18;100.00
63808;BME280;49961;43.970;22.868;2023-04-21T02:28:02;100859.56;;;11.74;100.00
63808;BME280;49961;43.970;22.868;2023-04-21T02:29:03;100936.88;;;12.23;100.00
63808;BME280;49961;43.970;22.868;2023-04-21T02:30:03;100935.66;;;12.24;100.00
63808;BME280;49961;43.970;22.868;2023-04-21T02:31:04;100843.06;;;11.67;100.00
63808;BME280;49961;43.970;22.868;2023-04-21T02:32:04;100936.88;;;12.23;100.00
63808;BME280;49961;43.970;22.868;2023-04-21T02:33:05;100939.56;;;12.27;100.00
63808;BME280;49961;43.970;22.868;2023-04-21T02:34:06;100927.06;;;12.19;100.00
63808;BME280;49961;43.970;22.868;2023-04-21T02:35:06;100933.66;;;12.25;100.00
63808;BME280;49961;43.970;22.868;2023-04-21T02:36:07;100930.53;;;12.23;100.00
63808;BME280;49961;43.970;22.868;2023-04-21T02:37:07;100941.56;;;12.26;100.00
63808;BME280;49961;43.970;22.868;2023-04-21T02:38:08;100938.34;;;12.28;100.00
63808;BME280;49961;43.970;22.868;2023-04-21T02:39:09;100940.78;;;12.26;100.00
63808;BME280;49961;43.970;22.868;2023-04-21T02:40:10;100939.97;;;12.25;100.00
63808;BME280;49961;43.970;22.868;2023-04-21T02:41:10;100945.72;;;12.18;100.00
63808;BME280;49961;43.970;22.868;2023-04-21T02:42:11;100936.19;;;12.19;100.00
63808;BME280;49961;43.970;22.868;2023-04-21T02:43:15;100938.09;;;12.22;100.00
63808;BME280;49961;43.970;22.868;2023-04-21T02:44:15;100942.44;;;12.23;100.00
63808;BME280;49961;43.970;22.868;2023-04-21T02:45:16;100926.28;;;12.18;100.00
63808;BME280;49961;43.970;22.868;2023-04-21T02:46:16;100941.63;;;12.23;100.00
63808;BME280;49961;43.970;22.868;2023-04-21T02:47:17;100877.88;;;11.87;100.00
63808;BME280;49961;43.970;22.868;2023-04-21T02:48:17;100934.94;;;12.20;100.00
63808;BME280;49961;43.970;22.868;2023-04-21T02:49:22;100891.66;;;11.91;100.00
63808;BME280;49961;43.970;22.868;2023-04-21T02:50:22;100936.88;;;12.07;100.00
63808;BME280;49961;43.970;22.868;2023-04-21T02:51:22;100934.09;;;12.07;100.00
63808;BME280;49961;43.970;22.868;2023-04-21T02:52:23;100930.53;;;12.07;100.00
63808;BME280;49961;43.970;22.868;2023-04-21T02:53:24;100934.09;;;12.07;100.00
63808;BME280;49961;43.970;22.868;2023-04-21T02:54:24;100928.72;;;12.00;100.00
63808;BME280;49961;43.970;22.868;2023-04-21T02:55:24;100936.53;;;12.05;100.00
63808;BME280;49961;43.970;22.868;2023-04-21T02:56:25;100807.75;;;11.19;100.00
63808;BME280;49961;43.970;22.868;2023-04-21T02:57:25;100933.94;;;11.98;100.00
63808;BME280;49961;43.970;22.868;2023-04-21T02:58:26;100925.50;;;11.86;100.00
63808;BME280;49961;43.970;22.868;2023-04-21T02:59:26;100924.81;;;11.98;100.00
63808;BME280;49961;43.970;22.868;2023-04-21T03:00:27;100931.59;;;11.97;100.00
63808;BME280;49961;43.970;22.868;2023-04-21T03:01:27;100933.41;;;12.03;100.00
63808;BME280;49961;43.970;22.868;2023-04-21T03:02:27;100927.94;;;12.00;100.00
63808;BME280;49961;43.970;22.868;2023-04-21T03:03:28;100935.41;;;12.03;100.00
63808;BME280;49961;43.970;22.868;2023-04-21T03:04:29;100936.97;;;12.04;100.00
63808;BME280;49961;43.970;22.868;2023-04-21T03:05:31;100932.63;;;12.03;100.00
63808;BME280;49961;43.970;22.868;2023-04-21T03:06:32;100885.19;;;11.65;100.00
63808;BME280;49961;43.970;22.868;2023-04-21T03:07:33;100940.63;;;12.01;100.00
63808;BME280;49961;43.970;22.868;2023-04-21T03:08:33;100952.53;;;12.01;100.00
63808;BME280;49961;43.970;22.868;2023-04-21T03:09:34;100949.28;;;12.03;100.00
63808;BME280;49961;43.970;22.868;2023-04-21T03:10:36;100879.75;;;11.58;100.00
63808;BME280;49961;43.970;22.868;2023-04-21T03:11:37;100942.53;;;12.04;100.00
63808;BME280;49961;43.970;22.868;2023-04-21T03:12:37;100942.88;;;12.06;100.00
63808;BME280;49961;43.970;22.868;2023-04-21T03:13:37;100878.19;;;11.57;100.00
63808;BME280;49961;43.970;22.868;2023-04-21T03:14:38;100943.31;;;12.04;100.00
63808;BME280;49961;43.970;22.868;2023-04-21T03:15:38;100940.44;;;12.08;100.00
63808;BME280;49961;43.970;22.868;2023-04-21T03:16:38;100942.44;;;12.07;100.00
63808;BME280;49961;43.970;22.868;2023-04-21T03:17:39;100843.66;;;11.42;100.00
63808;BME280;49961;43.970;22.868;2023-04-21T03:18:40;100944.69;;;12.12;100.00
63808;BME280;49961;43.970;22.868;2023-04-21T03:19:40;100946.59;;;12.15;100.00
63808;BME280;49961;43.970;22.868;2023-04-21T03:20:41;100945.41;;;12.16;100.00
63808;BME280;49961;43.970;22.868;2023-04-21T03:21:41;100947.06;;;12.14;100.00
63808;BME280;49961;43.970;22.868;2023-04-21T03:22:42;100945.03;;;12.14;100.00
63808;BME280;49961;43.970;22.868;2023-04-21T03:23:42;100946.59;;;12.15;100.00
63808;BME280;49961;43.970;22.868;2023-04-21T03:24:43;100945.41;;;12.16;100.00
63808;BME280;49961;43.970;22.868;2023-04-21T03:25:43;100943.06;;;12.15;100.00
63808;BME280;49961;43.970;22.868;2023-04-21T03:26:43;100944.19;;;12.17;100.00
63808;BME280;49961;43.970;22.868;2023-04-21T03:27:44;100945.41;;;12.16;100.00
63808;BME280;49961;43.970;22.868;2023-04-21T03:28:44;100944.69;;;12.12;100.00
63808;BME280;49961;43.970;22.868;2023-04-21T03:29:45;100939.66;;;12.07;100.00
63808;BME280;49961;43.970;22.868;2023-04-21T03:30:45;100944.28;;;12.14;100.00
63808;BME280;49961;43.970;22.868;2023-04-21T03:31:45;100945.13;;;12.11;100.00
63808;BME280;49961;43.970;22.868;2023-04-21T03:32:46;100833.16;;;11.34;100.00
63808;BME280;49961;43.970;22.868;2023-04-21T03:33:46;100931.25;;;11.95;100.00
63808;BME280;49961;43.970;22.868;2023-04-21T03:34:47;100958.31;;;12.07;100.00
63808;BME280;49961;43.970;22.868;2023-04-21T03:35:49;100957.19;;;12.04;100.00
63808;BME280;49961;43.970;22.868;2023-04-21T03:36:49;100943.72;;;12.03;100.00
63808;BME280;49961;43.970;22.868;2023-04-21T03:37:50;100951.63;;;12.04;100.00
63808;BME280;49961;43.970;22.868;2023-04-21T03:38:50;100962.31;;;12.06;100.00
63808;BME280;49961;43.970;22.868;2023-04-21T03:39:50;100940.19;;;12.02;100.00
63808;BME280;49961;43.970;22.868;2023-04-21T03:40:51;100951.53;;;12.08;100.00
63808;BME280;49961;43.970;22.868;2023-04-21T03:41:51;100943.06;;;11.99;100.00
63808;BME280;49961;43.970;22.868;2023-04-21T03:42:52;100953.56;;;12.07;100.00
63808;BME280;49961;43.970;22.868;2023-04-21T03:43:52;100950.78;;;12.07;100.00
63808;BME280;49961;43.970;22.868;2023-04-21T03:44:53;100957.88;;;12.08;100.00
63808;BME280;49961;43.970;22.868;2023-04-21T03:45:53;100942.88;;;11.90;100.00
63808;BME280;49961;43.970;22.868;2023-04-21T03:46:54;100960.41;;;12.03;100.00
63808;BME280;49961;43.970;22.868;2023-04-21T03:47:54;100963.53;;;12.05;100.00
63808;BME280;49961;43.970;22.868;2023-04-21T03:48:56;100967.06;;;12.05;100.00
63808;BME280;49961;43.970;22.868;2023-04-21T03:49:56;100963.97;;;12.03;100.00
63808;BME280;49961;43.970;22.868;2023-04-21T03:50:56;100964.81;;;12.00;100.00
63808;BME280;49961;43.970;22.868;2023-04-21T03:51:57;100917.34;;;11.63;100.00
63808;BME280;49961;43.970;22.868;2023-04-21T03:52:57;100964.66;;;11.91;100.00
63808;BME280;49961;43.970;22.868;2023-04-21T03:53:57;100968.22;;;11.92;100.00
63808;BME280;49961;43.970;22.868;2023-04-21T03:54:58;100963.88;;;11.91;100.00
63808;BME280;49961;43.970;22.868;2023-04-21T03:55:59;100961.00;;;11.94;100.00
63808;BME280;49961;43.970;22.868;2023-04-21T03:56:59;100972.03;;;11.98;100.00
63808;BME280;49961;43.970;22.868;2023-04-21T03:57:59;100972.03;;;11.98;100.00
63808;BME280;49961;43.970;22.868;2023-04-21T03:59:00;100966.94;;;11.96;100.00
63808;BME280;49961;43.970;22.868;2023-04-21T04:00:00;100979.84;;;12.03;100.00
63808;BME280;49961;43.970;22.868;2023-04-21T04:01:01;100973.84;;;12.04;100.00
63808;BME280;49961;43.970;22.868;2023-04-21T04:02:01;100974.28;;;12.03;100.00
63808;BME280;49961;43.970;22.868;2023-04-21T04:03:02;100971.44;;;12.06;100.00
63808;BME280;49961;43.970;22.868;2023-04-21T04:04:02;100979.25;;;12.11;100.00
63808;BME280;49961;43.970;22.868;2023-04-21T04:05:03;100973.34;;;12.09;100.00
63808;BME280;49961;43.970;22.868;2023-04-21T04:06:04;100969.34;;;12.10;100.00
63808;BME280;49961;43.970;22.868;2023-04-21T04:07:04;100975.16;;;12.16;100.00
63808;BME280;49961;43.970;22.868;2023-04-21T04:08:06;100972.47;;;12.12;100.00
63808;BME280;49961;43.970;22.868;2023-04-21T04:09:07;100979.06;;;12.18;100.00
63808;BME280;49961;43.970;22.868;2023-04-21T04:10:08;100979.50;;;12.17;100.00
63808;BME280;49961;43.970;22.868;2023-04-21T04:11:08;100960.34;;;12.06;100.00
63808;BME280;49961;43.970;22.868;2023-04-21T04:12:08;100989.84;;;12.16;100.00
63808;BME280;49961;43.970;22.868;2023-04-21T04:13:09;100983.84;;;12.18;100.00
63808;BME280;49961;43.970;22.868;2023-04-21T04:14:09;100979.34;;;12.24;100.00
63808;BME280;49961;43.970;22.868;2023-04-21T04:15:10;100919.44;;;11.91;100.00
63808;BME280;49961;43.970;22.868;2023-04-21T04:16:10;100975.69;;;12.27;100.00
63808;BME280;49961;43.970;22.868;2023-04-21T04:17:10;100979.50;;;12.33;100.00
63808;BME280;49961;43.970;22.868;2023-04-21T04:18:11;100973.41;;;12.38;100.00
63808;BME280;49961;43.970;22.868;2023-04-21T04:19:11;100965.25;;;12.31;100.00
63808;BME280;49961;43.970;22.868;2023-04-21T04:20:12;100942.69;;;12.13;100.00
63808;BME280;49961;43.970;22.868;2023-04-21T04:21:12;100971.41;;;12.38;100.00
63808;BME280;49961;43.970;22.868;2023-04-21T04:22:12;100968.53;;;12.42;100.00
63808;BME280;49961;43.970;22.868;2023-04-21T04:23:13;100955.69;;;12.32;100.00
63808;BME280;49961;43.970;22.868;2023-04-21T04:24:13;100976.25;;;12.50;100.00
63808;BME280;49961;43.970;22.868;2023-04-21T04:25:14;100982.19;;;12.52;100.00
63808;BME280;49961;43.970;22.868;2023-04-21T04:26:16;100928.97;;;12.22;100.00
63808;BME280;49961;43.970;22.868;2023-04-21T04:27:16;100950.50;;;12.34;100.00
63808;BME280;49961;43.970;22.868;2023-04-21T04:28:17;100980.84;;;12.57;100.00
63808;BME280;49961;43.970;22.868;2023-04-21T04:29:17;100874.16;;;11.94;100.00
63808;BME280;49961;43.970;22.868;2023-04-21T04:30:18;100983.09;;;12.62;100.00
63808;BME280;49961;43.970;22.868;2023-04-21T04:31:18;100983.53;;;12.60;100.00
63808;BME280;49961;43.970;22.868;2023-04-21T04:32:18;100981.13;;;12.62;100.00
63808;BME280;49961;43.970;22.868;2023-04-21T04:33:19;100983.97;;;12.59;100.00
63808;BME280;49961;43.970;22.868;2023-04-21T04:34:20;100989.09;;;12.60;100.00
63808;BME280;49961;43.970;22.868;2023-04-21T04:35:22;100989.78;;;12.64;100.00
63808;BME280;49961;43.970;22.868;2023-04-21T04:36:23;100986.69;;;12.62;100.00
63808;BME280;49961;43.970;22.868;2023-04-21T04:37:24;100983.38;;;12.67;100.00
63808;BME280;49961;43.970;22.868;2023-04-21T04:38:24;100989.59;;;12.71;100.00
63808;BME280;49961;43.970;22.868;2023-04-21T04:39:25;100987.19;;;12.73;100.00
63808;BME280;49961;43.970;22.868;2023-04-21T04:40:25;100988.63;;;12.78;100.00
63808;BME280;49961;43.970;22.868;2023-04-21T04:41:28;100984.41;;;12.73;100.00
63808;BME280;49961;43.970;22.868;2023-04-21T04:42:29;100989.84;;;12.77;100.00
63808;BME280;49961;43.970;22.868;2023-04-21T04:43:30;100987.88;;;12.77;100.00
63808;BME280;49961;43.970;22.868;2023-04-21T04:44:36;100994.47;;;12.83;100.00
63808;BME280;49961;43.970;22.868;2023-04-21T04:45:36;100994.34;;;12.87;100.00
63808;BME280;49961;43.970;22.868;2023-04-21T04:46:37;100993.38;;;12.93;100.00
63808;BME280;49961;43.970;22.868;2023-04-21T04:47:38;100997.66;;;12.98;100.00
63808;BME280;49961;43.970;22.868;2023-04-21T04:48:39;100996.78;;;13.01;100.00
63808;BME280;49961;43.970;22.868;2023-04-21T04:49:39;100966.88;;;12.89;100.00
63808;BME280;49961;43.970;22.868;2023-04-21T04:50:40;100996.56;;;13.08;100.00
63808;BME280;49961;43.970;22.868;2023-04-21T04:51:40;100925.63;;;12.71;100.00
63808;BME280;49961;43.970;22.868;2023-04-21T04:52:41;100985.78;;;13.10;100.00
63808;BME280;49961;43.970;22.868;2023-04-21T04:53:43;100991.84;;;13.21;100.00
63808;BME280;49961;43.970;22.868;2023-04-21T04:54:44;100993.63;;;13.27;100.00
63808;BME280;49961;43.970;22.868;2023-04-21T04:55:44;100999.53;;;13.29;100.00
63808;BME280;49961;43.970;22.868;2023-04-21T04:56:46;100998.34;;;13.43;100.00
63808;BME280;49961;43.970;22.868;2023-04-21T04:57:46;101004.22;;;13.45;100.00
63808;BME280;49961;43.970;22.868;2023-04-21T04:58:47;101000.16;;;13.49;100.00
63808;BME280;49961;43.970;22.868;2023-04-21T04:59:47;100982.88;;;13.42;100.00
63808;BME280;49961;43.970;22.868;2023-04-21T05:00:47;101002.38;;;13.54;100.00
63808;BME280;49961;43.970;22.868;2023-04-21T05:01:48;101000.03;;;13.53;100.00
63808;BME280;49961;43.970;22.868;2023-04-21T05:02:48;101004.03;;;13.52;100.00
63808;BME280;49961;43.970;22.868;2023-04-21T05:03:49;101000.91;;;13.50;100.00
63808;BME280;49961;43.970;22.868;2023-04-21T05:04:49;101008.50;;;13.49;100.00
63808;BME280;49961;43.970;22.868;2023-04-21T05:05:50;100999.22;;;13.40;100.00
63808;BME280;49961;43.970;22.868;2023-04-21T05:06:50;101015.38;;;13.45;100.00
63808;BME280;49961;43.970;22.868;2023-04-21T05:07:51;101006.91;;;13.48;100.00
63808;BME280;49961;43.970;22.868;2023-04-21T05:08:51;101015.94;;;13.52;100.00
63808;BME280;49961;43.970;22.868;2023-04-21T05:09:52;101014.06;;;13.49;100.00